Portada
METAR-TAF:

METAR-TAF

Aeropuertos :

Aeropuerto de Okadama

Sapporo, Japón

latitud: 43-07N, longitud: 141-23E, altitud: 8 m

Observación

El informe se hizo hace 6 horas y 50 minutos, a las 05:28 UTC
Viento 14 kt del sur-sureste
Temperatura 22°C
Humedad 83%
Presión 1010 hPa
Visibilidad 10 km o más
Escasas nubes a una altura de 2000 ft
Nubes dispersas a una altura de 6000 ft
Cielo nuboso a una altura de 10000 ft

METAR: RJCO 210528Z 16014KT 9999 FEW020 SCT060 BKN100 22/19 Q1010 RMK 1CU020 4SC060 7AC100 A2983

Hora: 21:18 (12:18 UTC)


TAF: falta

Observaciones y pronósticos meteorológicos de más de 4000 aeropuertos (mensajes METAR y TAF).

Los puntos amarillos y rojos representan las estaciones disponibles.

Ponga el ratón en el punto deseado para ver el nombre de la estación.

Haga clic para ver las observaciones y los pronósticos meteorológicos.

Para cambiar el mapa : haga clic en los botones verdes con una cruz de color negro para hacer un zoom, en el botón verde con un guión para alejar o en las flechas verdes para mapas adyacentes.


METAR-TAF: